EPSC/SZZ METAR and TAF weather

Enter ICAO airport designator
Station Type Date Time Source
EPSC METAR 2023/01/29 19:00 UTC NOAA

EPSC 291900Z 22008KT 180V250 8000 -DZ FEW006 OVC008 02/01 Q1015


Station Type Date Time Source
EPSC Decoded METAR 2023/01/29 19:00 UTC NOAA

Szczecin, Poland (EPSC) 53-24N 014-37E 3M
Jan 29, 2023 - 02:00 PM EST / 2023.01.29 1900 UTC
Wind: from the SW (220 degrees) at 9 MPH (8 KT) (direction variable):0
Visibility: 4 mile(s):0
Sky conditions: overcast
Weather: light drizzle
Temperature: 35 F (2 C)
Windchill: 28 F (-2 C):1
Dew Point: 33 F (1 C)
Relative Humidity: 93%
Pressure (altimeter): 29.97 in. Hg (1015 hPa)
ob: EPSC 291900Z 22008KT 180V250 8000 -DZ FEW006 OVC008 02/01 Q1015
cycle: 19

Station Type Date Time Source
EPSC TAF 2023/01/29 18:33 UTC NOAA

TAF EPSC 291730Z 2918/3018 22006KT 9999 OVC008
TEMPO 2921/3002 26015G25KT 3000 RADZ BKN003
BECMG 3002/3005 28013KT SCT006 BKN020
TEMPO 3002/3006 27020G35KT 2000 SN BLSN BKN005 BKN010 PROB40
TEMPO 3003/3007 FZRA BKN006
TEMPO 3006/3018 27018G34KT RA RASN BKN008

Example: see airport list